createdAt,value
2023-03-18T00:00:49.726Z,101488.59
2023-03-18T00:03:17.719Z,101497.69
2023-03-18T00:05:45.715Z,101497.94
2023-03-18T00:08:13.178Z,101504.78
2023-03-18T00:10:40.884Z,101502.25
2023-03-18T00:13:08.403Z,101500.31
2023-03-18T00:15:36.077Z,101502.84
2023-03-18T00:18:03.757Z,101495.41
2023-03-18T00:20:39.129Z,101507.47
2023-03-18T00:23:08.680Z,101507.47
2023-03-18T00:25:37.894Z,101505.69
2023-03-18T00:28:07.191Z,101509.28
2023-03-18T00:30:39.066Z,101505.88
2023-03-18T00:33:07.355Z,101505.69
2023-03-18T00:35:36.503Z,101499.28
2023-03-18T00:38:07.653Z,101504.47
2023-03-18T00:40:53.559Z,101509.69
2023-03-18T00:43:23.235Z,101512.38
2023-03-18T00:45:51.255Z,101516.53
2023-03-18T00:48:18.769Z,101508.50
2023-03-18T00:50:46.928Z,101512.22
2023-03-18T00:53:15.303Z,101521.31
2023-03-18T00:55:44.184Z,101514.47
2023-03-18T00:58:12.857Z,101517.53
2023-03-18T01:00:41.468Z,101517.53
2023-03-18T01:03:09.098Z,101521.56
2023-03-18T01:05:36.727Z,101521.41
2023-03-18T01:08:05.123Z,101528.09
2023-03-18T01:10:33.303Z,101529.75
2023-03-18T01:13:01.644Z,101530.63
2023-03-18T01:15:29.768Z,101530.47
2023-03-18T01:17:58.507Z,101537.19
2023-03-18T01:20:27.081Z,101536.84
2023-03-18T01:22:57.078Z,101532.03
2023-03-18T01:25:25.038Z,101534.56
2023-03-18T01:27:54.863Z,101538.72
2023-03-18T01:30:23.936Z,101542.88
2023-03-18T01:32:54.096Z,101544.38
2023-03-18T01:35:22.241Z,101548.78
2023-03-18T01:37:51.707Z,101549.53
2023-03-18T01:40:21.249Z,101556.06
2023-03-18T01:42:57.704Z,101556.97
2023-03-18T01:45:30.454Z,101565.53
2023-03-18T01:48:01.258Z,101564.72
2023-03-18T01:50:33.572Z,101562.03
2023-03-18T01:53:08.386Z,101562.44
2023-03-18T01:55:38.000Z,101559.25
2023-03-18T01:58:24.696Z,101576.47
2023-03-18T02:01:19.303Z,101577.53
2023-03-18T02:03:50.514Z,101569.38
2023-03-18T02:06:19.386Z,101577.69
2023-03-18T02:08:58.398Z,101584.53
2023-03-18T02:11:27.185Z,101574.53
2023-03-18T02:14:00.746Z,101586.97
2023-03-18T02:16:35.448Z,101591.31
2023-03-18T02:19:12.379Z,101589.34
2023-03-18T02:21:45.519Z,101594.84
2023-03-18T02:24:25.348Z,101599.31
2023-03-18T02:27:26.753Z,101608.44
2023-03-18T02:29:58.853Z,101599.38
2023-03-18T02:32:31.400Z,101606.81
2023-03-18T02:35:03.689Z,101609.66
2023-03-18T02:37:32.555Z,101614.53
2023-03-18T02:40:15.465Z,101610.53
2023-03-18T02:42:44.428Z,101606.31
2023-03-18T02:45:38.492Z,101614.78
2023-03-18T02:48:15.343Z,101620.41
2023-03-18T02:50:43.228Z,101619.81
2023-03-18T02:53:13.227Z,101624.16
2023-03-18T02:55:42.519Z,101622.19
2023-03-18T02:58:10.466Z,101629.53
2023-03-18T03:00:38.649Z,101632.06
2023-03-18T03:03:06.571Z,101616.81
2023-03-18T03:05:35.074Z,101636.06
2023-03-18T03:08:03.100Z,101628.50
2023-03-18T03:10:34.022Z,101627.09
2023-03-18T03:13:02.487Z,101641.13
2023-03-18T03:15:30.948Z,101646.00
2023-03-18T03:18:00.354Z,101645.09
2023-03-18T03:20:28.837Z,101629.31
2023-03-18T03:22:58.235Z,101636.88
2023-03-18T03:25:27.602Z,101636.69
2023-03-18T03:27:56.484Z,101646.25
2023-03-18T03:30:26.322Z,101639.84
2023-03-18T03:32:53.915Z,101643.13
2023-03-18T03:35:22.432Z,101645.41
2023-03-18T03:37:50.638Z,101645.97
2023-03-18T03:40:19.160Z,101635.94
2023-03-18T03:42:49.317Z,101640.44
2023-03-18T03:45:19.578Z,101639.69
2023-03-18T03:47:47.889Z,101643.84
2023-03-18T03:50:18.408Z,101640.59
2023-03-18T03:52:47.134Z,101650.28
2023-03-18T03:55:17.543Z,101638.06
2023-03-18T03:57:46.316Z,101649.38
2023-03-18T04:00:18.822Z,101652.41
2023-03-18T04:02:50.945Z,101655.69
2023-03-18T04:05:22.706Z,101655.84
2023-03-18T04:07:51.610Z,101657.09
2023-03-18T04:10:23.084Z,101665.00
2023-03-18T04:12:51.038Z,101659.63
2023-03-18T04:15:21.389Z,101666.19
2023-03-18T04:17:51.311Z,101664.75
2023-03-18T04:20:20.122Z,101672.09
2023-03-18T04:22:48.235Z,101668.28
2023-03-18T04:25:18.937Z,101675.22
2023-03-18T04:27:47.313Z,101671.88
2023-03-18T04:30:17.982Z,101665.53
2023-03-18T04:33:01.537Z,101675.66
2023-03-18T04:35:30.058Z,101671.13
2023-03-18T04:37:57.829Z,101667.22
2023-03-18T04:40:25.562Z,101677.69
2023-03-18T04:42:53.297Z,101683.69
2023-03-18T04:45:27.222Z,101687.72
2023-03-18T04:47:58.526Z,101666.63
2023-03-18T04:50:29.431Z,101677.75
2023-03-18T04:52:57.291Z,101673.66
2023-03-18T04:55:28.458Z,101682.97
2023-03-18T04:57:56.974Z,101670.63
2023-03-18T05:00:26.954Z,101679.88
2023-03-18T05:03:04.813Z,101685.53
2023-03-18T05:05:32.896Z,101687.91
2023-03-18T05:08:00.715Z,101687.28
2023-03-18T05:10:29.230Z,101682.34
2023-03-18T05:12:56.765Z,101688.25
2023-03-18T05:15:31.057Z,101694.78
2023-03-18T05:18:00.114Z,101693.84
2023-03-18T05:20:28.866Z,101692.91
2023-03-18T05:22:56.687Z,101689.28
2023-03-18T05:25:32.875Z,101687.41
2023-03-18T05:28:01.366Z,101692.88
2023-03-18T05:30:44.274Z,101699.13
2023-03-18T05:33:15.505Z,101700.19
2023-03-18T05:35:49.777Z,101694.78
2023-03-18T05:38:20.716Z,101679.19
2023-03-18T05:40:48.651Z,101698.34
2023-03-18T05:43:21.887Z,101689.75
2023-03-18T05:45:53.403Z,101693.75
2023-03-18T05:48:27.187Z,101693.59
2023-03-18T05:50:59.683Z,101698.22
2023-03-18T05:53:32.128Z,101698.09
2023-03-18T05:56:12.518Z,101691.81
2023-03-18T05:58:40.375Z,101687.25
2023-03-18T06:01:31.653Z,101699.31
2023-03-18T06:04:01.180Z,101707.69
2023-03-18T06:06:29.155Z,101705.47
2023-03-18T06:08:56.824Z,101702.16
2023-03-18T06:11:24.985Z,101705.06
2023-03-18T06:13:54.575Z,101699.94
2023-03-18T06:16:23.509Z,101709.16
2023-03-18T06:18:53.847Z,101711.56
2023-03-18T06:21:21.444Z,101709.13
2023-03-18T06:23:49.864Z,101706.78
2023-03-18T06:26:18.000Z,101706.69
2023-03-18T06:28:48.318Z,101702.47
2023-03-18T06:31:17.994Z,101709.69
2023-03-18T06:33:46.386Z,101719.38
2023-03-18T06:36:16.936Z,101713.06
2023-03-18T06:38:48.981Z,101709.47
2023-03-18T06:41:18.098Z,101710.94
2023-03-18T06:44:06.656Z,101711.69
2023-03-18T06:46:34.526Z,101709.47
2023-03-18T06:49:03.904Z,101700.88
2023-03-18T06:51:35.184Z,101711.34
2023-03-18T06:54:03.241Z,101706.31
2023-03-18T06:56:38.867Z,101713.50
2023-03-18T06:59:17.709Z,101709.81
2023-03-18T07:01:46.671Z,101713.44
2023-03-18T07:04:17.521Z,101710.84
2023-03-18T07:06:45.773Z,101714.84
2023-03-18T07:09:15.520Z,101710.22
2023-03-18T07:11:47.112Z,101714.84
2023-03-18T07:14:20.528Z,101708.53
2023-03-18T07:16:48.285Z,101702.25
2023-03-18T07:19:17.947Z,101699.44
2023-03-18T07:21:46.594Z,101700.91
2023-03-18T07:24:14.416Z,101703.06
2023-03-18T07:26:42.028Z,101702.00
2023-03-18T07:29:10.770Z,101700.97
2023-03-18T07:31:38.780Z,101703.63
2023-03-18T07:34:06.636Z,101695.44
2023-03-18T07:36:34.258Z,101702.13
2023-03-18T07:39:02.166Z,101699.47
2023-03-18T07:41:29.957Z,101698.66
2023-03-18T07:43:57.534Z,101694.41
2023-03-18T07:46:25.969Z,101699.53
2023-03-18T07:48:53.817Z,101694.50
2023-03-18T07:51:21.807Z,101697.97
2023-03-18T07:53:51.795Z,101704.22
2023-03-18T07:56:19.594Z,101697.41
2023-03-18T07:58:48.044Z,101691.63
2023-03-18T08:01:21.571Z,101693.53
2023-03-18T08:03:49.582Z,101692.59
2023-03-18T08:06:19.088Z,101696.91
2023-03-18T08:08:47.231Z,101692.41
2023-03-18T08:11:14.918Z,101689.03
2023-03-18T08:13:42.982Z,101694.97
2023-03-18T08:16:10.615Z,101692.72
2023-03-18T08:18:38.222Z,101694.31
2023-03-18T08:21:06.140Z,101696.03
2023-03-18T08:23:33.714Z,101692.19
2023-03-18T08:26:01.754Z,101692.63
2023-03-18T08:28:29.753Z,101693.84
2023-03-18T08:30:59.331Z,101687.22
2023-03-18T08:33:28.204Z,101683.34
2023-03-18T08:35:56.412Z,101691.13
2023-03-18T08:38:25.238Z,101688.88
2023-03-18T08:40:52.740Z,101678.38
2023-03-18T08:43:22.977Z,101687.31
2023-03-18T08:45:54.313Z,101680.72
2023-03-18T08:48:23.108Z,101680.41
2023-03-18T08:50:50.780Z,101683.75
2023-03-18T08:53:19.544Z,101671.63
2023-03-18T08:55:47.137Z,101676.75
2023-03-18T08:58:14.917Z,101666.56
2023-03-18T09:00:43.099Z,101662.81
2023-03-18T09:03:11.252Z,101673.47
2023-03-18T09:05:38.912Z,101652.34
2023-03-18T09:08:06.760Z,101661.41
2023-03-18T09:10:34.395Z,101667.66
2023-03-18T09:13:02.116Z,101660.06
2023-03-18T09:15:30.288Z,101657.09
2023-03-18T09:18:11.089Z,101655.53
2023-03-18T09:20:41.361Z,101655.66
2023-03-18T09:23:10.072Z,101661.13
2023-03-18T09:25:38.251Z,101653.78
2023-03-18T09:28:06.025Z,101655.16
2023-03-18T09:30:34.190Z,101650.72
2023-03-18T09:33:02.192Z,101656.94
2023-03-18T09:35:29.884Z,101658.75
2023-03-18T09:37:57.546Z,101647.66
2023-03-18T09:40:36.247Z,101634.19
2023-03-18T09:43:32.549Z,101634.66
2023-03-18T09:46:24.909Z,101632.06
2023-03-18T09:49:15.147Z,101634.53
2023-03-18T09:52:13.995Z,101627.72
2023-03-18T09:54:45.141Z,101627.69
2023-03-18T09:57:42.428Z,101635.56
2023-03-18T10:00:26.128Z,101619.78
2023-03-18T10:03:02.613Z,101612.75
2023-03-18T10:05:41.478Z,101630.28
2023-03-18T10:08:18.872Z,101614.44
2023-03-18T10:10:47.750Z,101611.78
2023-03-18T10:13:29.150Z,101618.53
2023-03-18T10:16:04.591Z,101612.63
2023-03-18T10:18:35.702Z,101605.50
2023-03-18T10:21:21.691Z,101592.69
2023-03-18T10:24:00.901Z,101595.75
2023-03-18T10:26:35.035Z,101592.16
2023-03-18T10:29:33.398Z,101587.19
2023-03-18T10:32:22.483Z,101588.06
2023-03-18T10:35:18.383Z,101583.41
2023-03-18T10:37:57.994Z,101587.19
2023-03-18T10:40:27.284Z,101589.16
2023-03-18T10:42:56.555Z,101578.00
2023-03-18T10:45:28.689Z,101582.69
2023-03-18T10:48:03.289Z,101573.88
2023-03-18T10:50:43.417Z,101575.88
2023-03-18T10:53:19.923Z,101573.00
2023-03-18T10:56:05.225Z,101569.31
2023-03-18T10:58:33.721Z,101571.34
2023-03-18T11:01:01.216Z,101565.91
2023-03-18T11:03:47.653Z,101565.28
2023-03-18T11:06:20.211Z,101561.22
2023-03-18T11:08:49.677Z,101561.19
2023-03-18T11:11:35.350Z,101558.06
2023-03-18T11:14:05.249Z,101557.47
2023-03-18T11:16:49.642Z,101554.16
2023-03-18T11:19:32.340Z,101552.44
2023-03-18T11:22:17.869Z,101552.25
2023-03-18T11:24:45.586Z,101550.03
2023-03-18T11:27:18.888Z,101545.75
2023-03-18T11:29:59.156Z,101547.34
2023-03-18T11:32:28.801Z,101552.56
2023-03-18T11:34:58.621Z,101542.09
2023-03-18T11:37:41.401Z,101552.84
2023-03-18T11:40:15.075Z,101543.00
2023-03-18T11:42:43.345Z,101535.63
2023-03-18T11:45:36.683Z,101540.41
2023-03-18T11:48:06.968Z,101540.13
2023-03-18T11:50:54.446Z,101533.09
2023-03-18T11:53:38.525Z,101545.06
2023-03-18T11:56:45.381Z,101532.66
2023-03-18T11:59:37.614Z,101524.06
2023-03-18T12:02:42.845Z,101520.97
2023-03-18T12:05:13.976Z,101532.91
2023-03-18T12:07:51.533Z,101532.91
2023-03-18T12:10:24.910Z,101541.63
2023-03-18T12:13:11.906Z,101526.50
2023-03-18T12:15:45.058Z,101526.34
2023-03-18T12:18:21.912Z,101520.56
2023-03-18T12:21:04.873Z,101517.56
2023-03-18T12:23:44.667Z,101497.41
2023-03-18T12:26:21.431Z,101521.09
2023-03-18T12:28:54.995Z,101510.25
2023-03-18T12:32:11.193Z,101503.31
2023-03-18T12:34:47.726Z,101504.75
2023-03-18T12:37:32.404Z,101511.16
2023-03-18T12:40:34.548Z,101501.28
2023-03-18T12:43:37.532Z,101500.16
2023-03-18T12:46:20.717Z,101494.16
2023-03-18T12:48:54.457Z,101494.16
2023-03-18T12:51:28.577Z,101495.03
2023-03-18T12:54:02.383Z,101494.81
2023-03-18T12:56:31.301Z,101478.94
2023-03-18T12:59:19.041Z,101488.59
2023-03-18T13:02:05.704Z,101501.47
2023-03-18T13:04:38.379Z,101511.38
2023-03-18T13:07:43.213Z,101496.78
2023-03-18T13:10:24.475Z,101506.13
2023-03-18T13:12:56.880Z,101500.69
2023-03-18T13:15:32.235Z,101508.38
2023-03-18T13:18:21.491Z,101509.19
2023-03-18T13:20:51.912Z,101499.28
2023-03-18T13:23:38.503Z,101500.63
2023-03-18T13:26:24.361Z,101496.34
2023-03-18T13:29:01.025Z,101499.41
2023-03-18T13:31:57.981Z,101492.34
2023-03-18T13:35:01.822Z,101491.88
2023-03-18T13:37:58.734Z,101494.00
2023-03-18T13:40:52.959Z,101488.84
2023-03-18T13:43:23.035Z,101500.53
2023-03-18T13:45:55.368Z,101501.41
2023-03-18T13:48:33.729Z,101492.59
2023-03-18T13:51:20.538Z,101486.22
2023-03-18T13:53:50.688Z,101480.59
2023-03-18T13:56:48.016Z,101476.16
2023-03-18T13:59:33.668Z,101494.25
2023-03-18T14:02:55.191Z,101479.97
2023-03-18T14:05:40.556Z,101479.69
2023-03-18T14:08:39.219Z,101480.19
2023-03-18T14:11:46.325Z,101473.28
2023-03-18T14:14:57.020Z,101470.00
2023-03-18T14:17:58.663Z,101467.34
2023-03-18T14:20:36.248Z,101463.63
2023-03-18T14:23:25.387Z,101449.84
2023-03-18T14:26:08.696Z,101457.91
2023-03-18T14:28:44.591Z,101462.09
2023-03-18T14:31:32.720Z,101467.47
2023-03-18T14:34:10.289Z,101466.59
2023-03-18T14:36:46.861Z,101456.63
2023-03-18T14:39:24.687Z,101454.72
2023-03-18T14:41:57.110Z,101444.94
2023-03-18T14:44:47.803Z,101448.91
2023-03-18T14:47:39.515Z,101451.69
2023-03-18T14:50:15.910Z,101449.41
2023-03-18T14:52:51.163Z,101443.78
2023-03-18T14:55:22.773Z,101446.09
2023-03-18T14:57:51.890Z,101447.75
2023-03-18T15:00:21.981Z,101449.41
2023-03-18T15:03:00.647Z,101446.88
2023-03-18T15:05:34.144Z,101443.28
2023-03-18T15:08:03.112Z,101438.47
2023-03-18T15:10:32.921Z,101451.06
2023-03-18T15:13:13.144Z,101437.81
2023-03-18T15:15:42.156Z,101448.63
2023-03-18T15:18:24.732Z,101444.84
2023-03-18T15:21:04.402Z,101449.41
2023-03-18T15:23:36.013Z,101437.94
2023-03-18T15:26:08.745Z,101438.44
2023-03-18T15:28:37.448Z,101433.19
2023-03-18T15:31:06.606Z,101435.63
2023-03-18T15:33:37.371Z,101436.88
2023-03-18T15:36:12.895Z,101433.06
2023-03-18T15:38:48.398Z,101437.25
2023-03-18T15:41:18.509Z,101429.47
2023-03-18T15:43:49.399Z,101429.72
2023-03-18T15:46:24.959Z,101428.69
2023-03-18T15:48:58.408Z,101430.22
2023-03-18T15:51:30.950Z,101435.81
2023-03-18T15:54:04.563Z,101431.22
2023-03-18T15:56:36.079Z,101427.63
2023-03-18T15:59:09.302Z,101432.47
2023-03-18T16:01:37.348Z,101425.19
2023-03-18T16:04:08.471Z,101430.16
2023-03-18T16:06:36.508Z,101435.00
2023-03-18T16:09:15.682Z,101431.81
2023-03-18T16:11:47.843Z,101436.38
2023-03-18T16:14:21.699Z,101434.72
2023-03-18T16:16:50.139Z,101440.56
2023-03-18T16:19:28.164Z,101434.59
2023-03-18T16:21:58.599Z,101434.81
2023-03-18T16:24:26.428Z,101433.28
2023-03-18T16:26:55.814Z,101437.50
2023-03-18T16:29:29.399Z,101433.28
2023-03-18T16:31:57.340Z,101429.59
2023-03-18T16:34:25.257Z,101410.09
2023-03-18T16:36:53.665Z,101427.53
2023-03-18T16:39:27.502Z,101429.94
2023-03-18T16:41:55.109Z,101421.19
2023-03-18T16:44:23.735Z,101428.03
2023-03-18T16:46:54.638Z,101429.56
2023-03-18T16:49:27.198Z,101429.41
2023-03-18T16:51:55.204Z,101418.09
2023-03-18T16:54:25.825Z,101426.88
2023-03-18T16:56:59.441Z,101420.00
2023-03-18T16:59:37.009Z,101416.31
2023-03-18T17:02:04.974Z,101422.91
2023-03-18T17:04:35.990Z,101418.19
2023-03-18T17:07:04.953Z,101421.50
2023-03-18T17:09:32.850Z,101426.44
2023-03-18T17:12:04.626Z,101412.53
2023-03-18T17:14:34.794Z,101421.06
2023-03-18T17:17:11.787Z,101411.25
2023-03-18T17:19:40.263Z,101416.06
2023-03-18T17:22:21.907Z,101416.31
2023-03-18T17:24:50.319Z,101421.63
2023-03-18T17:27:20.731Z,101420.47
2023-03-18T17:29:48.640Z,101407.22
2023-03-18T17:32:16.845Z,101410.53
2023-03-18T17:34:50.561Z,101416.38
2023-03-18T17:37:18.942Z,101417.88
2023-03-18T17:39:47.159Z,101413.28
2023-03-18T17:42:32.006Z,101414.94
2023-03-18T17:45:21.650Z,101426.28
2023-03-18T17:47:50.342Z,101425.28
2023-03-18T17:50:18.825Z,101416.22
2023-03-18T17:52:49.033Z,101414.94
2023-03-18T17:55:24.982Z,101409.69
2023-03-18T17:57:52.567Z,101416.03
2023-03-18T18:00:23.093Z,101418.84
2023-03-18T18:02:54.887Z,101428.31
2023-03-18T18:05:23.500Z,101428.50
2023-03-18T18:07:51.696Z,101431.53
2023-03-18T18:10:20.806Z,101436.94
2023-03-18T18:12:49.835Z,101427.13
2023-03-18T18:15:25.626Z,101424.31
2023-03-18T18:17:54.447Z,101434.16
2023-03-18T18:20:22.443Z,101426.28
2023-03-18T18:22:54.610Z,101432.00
2023-03-18T18:25:25.357Z,101419.94
2023-03-18T18:27:54.867Z,101422.59
2023-03-18T18:30:23.919Z,101427.16
2023-03-18T18:32:52.673Z,101427.28
2023-03-18T18:35:25.314Z,101425.94
2023-03-18T18:37:53.191Z,101415.38
2023-03-18T18:40:21.020Z,101426.75
2023-03-18T18:42:48.687Z,101417.81
2023-03-18T18:45:19.278Z,101427.56
2023-03-18T18:47:47.397Z,101419.03
2023-03-18T18:50:21.717Z,101421.41
2023-03-18T18:52:49.367Z,101419.81
2023-03-18T18:55:17.097Z,101413.28
2023-03-18T18:57:44.853Z,101414.00
2023-03-18T19:00:21.997Z,101412.22
2023-03-18T19:02:58.372Z,101408.97
2023-03-18T19:05:26.035Z,101407.50
2023-03-18T19:07:53.798Z,101407.50
2023-03-18T19:10:21.535Z,101404.25
2023-03-18T19:12:49.006Z,101399.88
2023-03-18T19:15:17.086Z,101402.16
2023-03-18T19:17:45.392Z,101403.94
2023-03-18T19:20:30.147Z,101396.47
2023-03-18T19:22:57.913Z,101400.38
2023-03-18T19:25:26.018Z,101397.53
2023-03-18T19:27:54.957Z,101394.97
2023-03-18T19:30:24.455Z,101390.53
2023-03-18T19:32:52.409Z,101388.59
2023-03-18T19:35:19.943Z,101382.66
2023-03-18T19:37:48.202Z,101383.41
2023-03-18T19:40:29.787Z,101371.31
2023-03-18T19:42:57.583Z,101370.88
2023-03-18T19:45:25.530Z,101380.28
2023-03-18T19:47:53.524Z,101370.56
2023-03-18T19:50:22.068Z,101371.78
2023-03-18T19:52:49.865Z,101361.31
2023-03-18T19:55:17.634Z,101369.25
2023-03-18T19:57:48.571Z,101352.97
2023-03-18T20:00:24.787Z,101365.47
2023-03-18T20:02:53.745Z,101351.03
2023-03-18T20:05:23.761Z,101358.97
2023-03-18T20:07:52.291Z,101367.16
2023-03-18T20:10:20.791Z,101361.34
2023-03-18T20:12:52.796Z,101364.94
2023-03-18T20:15:23.504Z,101364.06
2023-03-18T20:17:52.381Z,101354.81
2023-03-18T20:20:23.500Z,101344.53
2023-03-18T20:23:03.596Z,101355.41
2023-03-18T20:25:37.403Z,101347.97
2023-03-18T20:28:06.154Z,101358.13
2023-03-18T20:30:36.795Z,101348.88
2023-03-18T20:33:05.185Z,101337.09
2023-03-18T20:35:36.738Z,101342.66
2023-03-18T20:38:12.818Z,101343.69
2023-03-18T20:40:42.590Z,101339.78
2023-03-18T20:43:17.970Z,101341.16
2023-03-18T20:45:45.715Z,101340.28
2023-03-18T20:48:13.441Z,101335.78
2023-03-18T20:50:41.813Z,101338.31
2023-03-18T20:53:16.338Z,101341.31
2023-03-18T20:55:44.200Z,101349.81
2023-03-18T20:58:16.172Z,101350.09
2023-03-18T21:00:45.504Z,101345.66
2023-03-18T21:03:24.675Z,101342.38
2023-03-18T21:05:56.002Z,101329.41
2023-03-18T21:08:24.832Z,101328.97
2023-03-18T21:10:53.509Z,101330.75
2023-03-18T21:13:39.287Z,101335.81
2023-03-18T21:16:13.842Z,101326.59
2023-03-18T21:18:46.141Z,101330.03
2023-03-18T21:21:24.034Z,101336.13
2023-03-18T21:23:53.997Z,101337.16
2023-03-18T21:26:23.463Z,101324.22
2023-03-18T21:28:52.620Z,101331.06
2023-03-18T21:31:25.158Z,101329.69
2023-03-18T21:33:53.584Z,101328.34
2023-03-18T21:36:21.866Z,101324.19
2023-03-18T21:38:49.519Z,101327.75
2023-03-18T21:41:22.426Z,101323.59
2023-03-18T21:43:50.627Z,101322.09
2023-03-18T21:46:20.712Z,101322.97
2023-03-18T21:48:48.608Z,101320.44
2023-03-18T21:51:38.078Z,101325.50
2023-03-18T21:54:06.374Z,101313.72
2023-03-18T21:56:33.896Z,101318.78
2023-03-18T21:59:01.454Z,101311.34
2023-03-18T22:01:32.320Z,101324.00
2023-03-18T22:04:00.031Z,101315.94
2023-03-18T22:06:27.544Z,101323.84
2023-03-18T22:08:57.500Z,101315.50
2023-03-18T22:11:27.604Z,101313.38
2023-03-18T22:13:55.585Z,101319.81
2023-03-18T22:16:23.216Z,101312.50
2023-03-18T22:18:51.365Z,101315.50
2023-03-18T22:21:27.677Z,101309.56
2023-03-18T22:23:58.146Z,101317.88
2023-03-18T22:26:25.970Z,101307.72
2023-03-18T22:28:53.696Z,101315.31
2023-03-18T22:31:25.027Z,101303.53
2023-03-18T22:33:53.522Z,101307.69
2023-03-18T22:36:25.653Z,101322.13
2023-03-18T22:38:53.211Z,101303.84
2023-03-18T22:41:24.128Z,101306.38
2023-03-18T22:43:51.657Z,101307.06
2023-03-18T22:46:19.173Z,101305.59
2023-03-18T22:48:46.862Z,101295.13
2023-03-18T22:51:33.202Z,101294.50
2023-03-18T22:54:00.847Z,101305.06
2023-03-18T22:56:28.507Z,101299.38
2023-03-18T22:58:56.116Z,101289.13
2023-03-18T23:01:29.682Z,101303.06
2023-03-18T23:03:57.300Z,101286.06
2023-03-18T23:06:26.043Z,101299.59
2023-03-18T23:08:53.589Z,101278.31
2023-03-18T23:11:21.423Z,101290.63
2023-03-18T23:13:50.184Z,101289.03
2023-03-18T23:16:20.985Z,101284.53
2023-03-18T23:18:49.240Z,101273.50
2023-03-18T23:21:22.151Z,101284.50
2023-03-18T23:23:50.440Z,101275.56
2023-03-18T23:26:18.151Z,101271.34
2023-03-18T23:28:46.101Z,101276.88
2023-03-18T23:31:15.662Z,101273.47
2023-03-18T23:33:43.475Z,101255.41
2023-03-18T23:36:11.978Z,101264.84
2023-03-18T23:38:39.734Z,101263.47
2023-03-18T23:41:08.204Z,101261.53
2023-03-18T23:43:38.308Z,101265.09
2023-03-18T23:46:06.384Z,101250.69
2023-03-18T23:48:33.894Z,101243.22
2023-03-18T23:51:01.360Z,101247.69
2023-03-18T23:53:28.900Z,101250.06
2023-03-18T23:55:56.786Z,101244.84
2023-03-18T23:58:24.316Z,101247.53
